Time;durP1;ratioP1;P1;durP2;ratioP2;P2;SDS_P1;SDS_P2;PMS_P1;PMS_P2;Temp;Humidity;BMP_temperature;BMP_pressure;BME280_temperature;BME280_humidity;BME280_pressure;Samples;Min_cycle;Max_cycle;Signal;HPM_P1;HPM_P2
2022/09/24 00:00:17;;;;;;;;;;;12.30;99.90;;;;;;5096719;28;19916;-71
2022/09/24 00:02:42;;;;;;;;;;;12.30;99.90;;;;;;5078578;28;19908;-71
2022/09/24 00:05:08;;;;;;;;;;;12.30;99.90;;;;;;5096499;28;19946;-71
2022/09/24 00:07:33;;;;;;;;;;;12.20;99.90;;;;;;5096361;28;19920;-71
2022/09/24 00:09:59;;;;;;;;;;;12.20;99.90;;;;;;5096442;28;20386;-71
2022/09/24 00:12:24;;;;;;;;;;;12.20;99.90;;;;;;5096394;28;19931;-71
2022/09/24 00:14:50;;;;;;;;;;;12.20;99.90;;;;;;5078251;28;19908;-71
2022/09/24 00:17:15;;;;;;;;;;;12.30;99.90;;;;;;5078156;28;20363;-71
2022/09/24 00:19:41;;;;;;;;;;;12.30;99.90;;;;;;5078108;28;19970;-72
2022/09/24 00:22:06;;;;;;;;;;;12.30;99.90;;;;;;5078170;28;19909;-71
2022/09/24 00:27:17;;;;;;;;;;;12.20;99.90;;;;;;5080756;28;19991;-72
2022/09/24 00:29:42;;;;;;;;;;;12.20;99.90;;;;;;5061210;28;19962;-72
2022/09/24 00:32:09;;;;;;;;;;;12.20;99.90;;;;;;5077915;28;19908;-71
2022/09/24 00:34:34;;;;;;;;;;;12.10;99.90;;;;;;5096002;28;19951;-71
2022/09/24 00:37:00;;;;;;;;;;;12.10;99.90;;;;;;5095962;28;19931;-71
2022/09/24 00:39:26;;;;;;;;;;;12.10;99.90;;;;;;5096054;28;20322;-71
2022/09/24 00:41:51;;;;;;;;;;;12.10;99.90;;;;;;5077733;28;19948;-71
2022/09/24 00:44:36;;;;;;;;;;;12.10;99.90;;;;;;5077535;28;20369;-71
2022/09/24 00:47:02;;;;;;;;;;;12.10;99.90;;;;;;5095307;28;19920;-71
2022/09/24 00:49:27;;;;;;;;;;;12.10;99.90;;;;;;5095739;28;19995;-71
2022/09/24 00:51:53;;;;;;;;;;;12.10;99.90;;;;;;5095675;28;19915;-71
2022/09/24 00:54:25;;;;;;;;;;;12.20;99.90;;;;;;5095592;28;19915;-71
2022/09/24 00:56:52;;;;;;;;;;;12.20;99.90;;;;;;5095579;28;19908;-71
2022/09/24 00:59:18;;;;;;;;;;;12.20;99.90;;;;;;5095463;28;19915;-72
2022/09/24 01:01:45;;;;;;;;;;;12.20;99.90;;;;;;5077435;28;19915;-71
2022/09/24 01:04:11;;;;;;;;;;;12.20;99.90;;;;;;5095450;28;20016;-71
2022/09/24 01:06:37;;;;;;;;;;;12.30;99.90;;;;;;5095305;28;19961;-71
2022/09/24 01:09:03;;;;;;;;;;;12.30;99.90;;;;;;5095298;28;20374;-71
2022/09/24 01:11:37;;;;;;;;;;;12.30;99.90;;;;;;5077073;28;19955;-71
2022/09/24 01:14:10;;;;;;;;;;;12.30;99.90;;;;;;5077092;28;20002;-71
2022/09/24 01:16:42;;;;;;;;;;;12.30;99.90;;;;;;5077038;28;19908;-71
2022/09/24 01:19:28;;;;;;;;;;;12.30;99.90;;;;;;5095125;28;20006;-71
2022/09/24 01:21:56;;;;;;;;;;;12.30;99.90;;;;;;5076848;28;19909;-71
2022/09/24 01:24:42;;;;;;;;;;;12.20;99.90;;;;;;5095048;28;19943;-71
2022/09/24 01:27:27;;;;;;;;;;;12.20;99.90;;;;;;5094747;28;19912;-71
2022/09/24 01:30:01;;;;;;;;;;;12.20;99.90;;;;;;5094835;28;19938;-71
2022/09/24 01:32:37;;;;;;;;;;;12.30;99.90;;;;;;5076843;28;19908;-71
2022/09/24 01:35:10;;;;;;;;;;;12.30;99.90;;;;;;5094811;28;19908;-71
2022/09/24 01:37:36;;;;;;;;;;;12.30;99.90;;;;;;5094758;28;19917;-71
2022/09/24 01:40:03;;;;;;;;;;;12.20;99.90;;;;;;5094713;28;20393;-71
2022/09/24 01:42:29;;;;;;;;;;;12.20;99.90;;;;;;5094653;28;19931;-72
2022/09/24 01:44:57;;;;;;;;;;;12.20;99.90;;;;;;5094636;28;20369;-71
2022/09/24 01:47:28;;;;;;;;;;;12.10;99.90;;;;;;5094309;28;19920;-71
2022/09/24 01:49:54;;;;;;;;;;;12.10;99.90;;;;;;5094472;28;19908;-71
2022/09/24 01:52:22;;;;;;;;;;;12.10;99.90;;;;;;5094474;28;20371;-71
2022/09/24 01:54:50;;;;;;;;;;;12.10;99.90;;;;;;5094426;28;20366;-71
2022/09/24 01:57:19;;;;;;;;;;;12.10;99.90;;;;;;5093953;28;20483;-71
2022/09/24 01:59:49;;;;;;;;;;;12.00;99.90;;;;;;5094454;28;20385;-71
2022/09/24 02:02:21;;;;;;;;;;;12.00;99.90;;;;;;5076561;28;20290;-71
2022/09/24 02:04:52;;;;;;;;;;;12.00;99.90;;;;;;5094384;28;19908;-71
2022/09/24 02:07:22;;;;;;;;;;;12.00;99.90;;;;;;5076002;28;20267;-71
2022/09/24 02:09:47;;;;;;;;;;;12.00;99.90;;;;;;5094240;28;19930;-71
2022/09/24 02:12:16;;;;;;;;;;;12.00;99.90;;;;;;5094197;28;20007;-71
2022/09/24 02:14:44;;;;;;;;;;;12.00;99.90;;;;;;5094259;28;19961;-71
2022/09/24 02:17:09;;;;;;;;;;;12.00;99.90;;;;;;5094172;28;20011;-71
2022/09/24 02:19:36;;;;;;;;;;;12.10;99.90;;;;;;5094076;28;20358;-71
2022/09/24 02:22:04;;;;;;;;;;;12.00;99.90;;;;;;5094061;28;19908;-71
2022/09/24 02:24:33;;;;;;;;;;;12.10;99.90;;;;;;5076049;28;19919;-71
2022/09/24 02:26:59;;;;;;;;;;;12.10;99.90;;;;;;5075892;28;19918;-71
2022/09/24 02:29:24;;;;;;;;;;;12.20;99.90;;;;;;5075986;28;19908;-71
2022/09/24 02:31:52;;;;;;;;;;;12.20;99.90;;;;;;5075787;28;20439;-71
2022/09/24 02:34:19;;;;;;;;;;;12.20;99.90;;;;;;5093822;28;19915;-71
2022/09/24 02:36:46;;;;;;;;;;;12.10;99.90;;;;;;5093821;28;19908;-71
2022/09/24 02:39:11;;;;;;;;;;;12.20;99.90;;;;;;5093817;28;20388;-71
2022/09/24 02:41:37;;;;;;;;;;;12.20;99.90;;;;;;5093800;28;19908;-71
2022/09/24 02:44:02;;;;;;;;;;;12.20;99.90;;;;;;5093730;28;19915;-71
2022/09/24 02:46:28;;;;;;;;;;;12.20;99.90;;;;;;5075629;28;19914;-71
2022/09/24 02:48:53;;;;;;;;;;;12.10;99.90;;;;;;5075364;28;19920;-71
2022/09/24 02:51:20;;;;;;;;;;;12.10;99.90;;;;;;5075576;28;19908;-71
2022/09/24 02:53:46;;;;;;;;;;;12.10;99.90;;;;;;5075611;28;20418;-71
2022/09/24 02:56:11;;;;;;;;;;;12.10;99.90;;;;;;5075717;28;19954;-71
2022/09/24 02:58:37;;;;;;;;;;;12.00;99.90;;;;;;5093554;28;19930;-71
2022/09/24 03:01:03;;;;;;;;;;;12.00;99.90;;;;;;5093492;28;19908;-71
2022/09/24 03:03:28;;;;;;;;;;;12.00;99.90;;;;;;5058846;28;19912;-71
2022/09/24 03:05:54;;;;;;;;;;;12.00;99.90;;;;;;5093516;28;19930;-71
2022/09/24 03:08:20;;;;;;;;;;;11.90;99.90;;;;;;5093556;28;19967;-71
2022/09/24 03:10:46;;;;;;;;;;;11.90;99.90;;;;;;5097648;28;20263;-71
2022/09/24 03:13:12;;;;;;;;;;;11.90;99.90;;;;;;5097616;28;19915;-71
2022/09/24 03:15:37;;;;;;;;;;;11.90;99.90;;;;;;5097550;28;19908;-71
2022/09/24 03:18:03;;;;;;;;;;;11.90;99.90;;;;;;5097479;28;19930;-71
2022/09/24 03:20:28;;;;;;;;;;;11.90;99.90;;;;;;5097446;28;19909;-71
2022/09/24 03:22:54;;;;;;;;;;;12.00;99.90;;;;;;5079349;28;19915;-71
2022/09/24 03:25:19;;;;;;;;;;;12.10;99.90;;;;;;5097365;28;19908;-71
2022/09/24 03:27:45;;;;;;;;;;;12.10;99.90;;;;;;5097184;28;19919;-71
2022/09/24 03:32:56;;;;;;;;;;;12.10;99.90;;;;;;5096918;28;19973;-71
2022/09/24 03:35:22;;;;;;;;;;;12.10;99.90;;;;;;5097080;28;20359;-71
2022/09/24 03:37:47;;;;;;;;;;;12.10;99.90;;;;;;5097074;28;19908;-71
2022/09/24 03:40:13;;;;;;;;;;;12.10;99.90;;;;;;5097090;28;19908;-71
2022/09/24 03:42:38;;;;;;;;;;;12.20;99.90;;;;;;5096991;28;20387;-71
2022/09/24 03:45:04;;;;;;;;;;;12.20;99.90;;;;;;5096915;28;19915;-71
2022/09/24 03:47:30;;;;;;;;;;;12.20;99.90;;;;;;5078416;28;19920;-72
2022/09/24 03:49:56;;;;;;;;;;;12.30;99.90;;;;;;5078667;28;19908;-71
2022/09/24 03:52:21;;;;;;;;;;;12.20;99.90;;;;;;5096819;28;19989;-72
2022/09/24 03:54:47;;;;;;;;;;;12.30;99.90;;;;;;5096890;28;19915;-71
2022/09/24 03:57:13;;;;;;;;;;;12.20;99.90;;;;;;5096710;28;19958;-71
2022/09/24 03:59:41;;;;;;;;;;;12.20;99.90;;;;;;5078489;28;19915;-71
2022/09/24 04:02:07;;;;;;;;;;;12.20;99.90;;;;;;5096609;28;20359;-71
2022/09/24 04:04:32;;;;;;;;;;;12.30;99.90;;;;;;5078390;28;19998;-71
2022/09/24 04:06:58;;;;;;;;;;;12.30;99.90;;;;;;5061630;28;19908;-71
2022/09/24 04:09:24;;;;;;;;;;;12.30;99.90;;;;;;5096498;28;20012;-72
2022/09/24 04:11:51;;;;;;;;;;;12.30;99.90;;;;;;5096467;28;19931;-71
2022/09/24 04:14:17;;;;;;;;;;;12.30;99.90;;;;;;5096414;28;20344;-71
2022/09/24 04:16:43;;;;;;;;;;;12.30;99.90;;;;;;5096472;28;19908;-71
2022/09/24 04:19:08;;;;;;;;;;;12.30;99.90;;;;;;5096054;28;19953;-71
2022/09/24 04:21:33;;;;;;;;;;;12.20;99.90;;;;;;5061211;28;19908;-71
2022/09/24 04:23:59;;;;;;;;;;;12.20;99.90;;;;;;5096216;28;19908;-71
2022/09/24 04:26:25;;;;;;;;;;;12.20;99.90;;;;;;5096174;28;20289;-71
2022/09/24 04:28:50;;;;;;;;;;;12.20;99.90;;;;;;5096079;28;19916;-71
2022/09/24 04:31:16;;;;;;;;;;;12.20;99.90;;;;;;5096113;28;19943;-71
2022/09/24 04:33:41;;;;;;;;;;;12.10;99.90;;;;;;5096051;28;19908;-71
2022/09/24 04:36:06;;;;;;;;;;;12.10;99.90;;;;;;5077852;28;20002;-71
2022/09/24 04:38:32;;;;;;;;;;;12.10;99.90;;;;;;5095965;28;20328;-71
2022/09/24 04:41:06;;;;;;;;;;;12.10;99.90;;;;;;5095949;28;19909;-71
2022/09/24 04:43:32;;;;;;;;;;;12.20;99.90;;;;;;5095824;28;20424;-71
2022/09/24 04:45:58;;;;;;;;;;;12.10;99.90;;;;;;5095838;28;19912;-71
2022/09/24 04:48:23;;;;;;;;;;;12.10;99.90;;;;;;5095359;28;19943;-71
2022/09/24 04:50:49;;;;;;;;;;;12.10;99.90;;;;;;5095711;28;20370;-71
2022/09/24 04:53:15;;;;;;;;;;;12.10;99.90;;;;;;5095619;28;19909;-71
2022/09/24 04:55:40;;;;;;;;;;;12.20;99.90;;;;;;5077550;28;20401;-71
2022/09/24 04:58:06;;;;;;;;;;;12.20;99.90;;;;;;5095657;28;20291;-71
2022/09/24 05:00:32;;;;;;;;;;;12.20;99.90;;;;;;5077501;28;19915;-71
2022/09/24 05:02:58;;;;;;;;;;;12.20;99.90;;;;;;5095469;28;20017;-71
2022/09/24 05:05:24;;;;;;;;;;;12.20;99.90;;;;;;5095424;28;20282;-71
2022/09/24 05:07:51;;;;;;;;;;;12.20;99.90;;;;;;5095242;28;19919;-71
2022/09/24 05:10:17;;;;;;;;;;;12.20;99.90;;;;;;5095311;28;19908;-71
2022/09/24 05:12:42;;;;;;;;;;;12.20;99.90;;;;;;5095244;28;19914;-71
2022/09/24 05:15:08;;;;;;;;;;;12.20;99.90;;;;;;5095242;28;19952;-71
2022/09/24 05:17:37;;;;;;;;;;;12.10;99.90;;;;;;5077014;28;19908;-71
2022/09/24 05:20:03;;;;;;;;;;;12.10;99.90;;;;;;5077120;28;19908;-71
2022/09/24 05:22:30;;;;;;;;;;;12.10;99.90;;;;;;5095080;28;20362;-71
2022/09/24 05:24:55;;;;;;;;;;;12.10;99.90;;;;;;5095072;28;19916;-71
2022/09/24 05:27:22;;;;;;;;;;;12.10;99.90;;;;;;5076659;28;19912;-71
2022/09/24 05:29:47;;;;;;;;;;;12.10;99.90;;;;;;5094885;28;19909;-71
2022/09/24 05:32:14;;;;;;;;;;;12.10;99.90;;;;;;5094033;28;19915;-71
2022/09/24 05:34:41;;;;;;;;;;;12.10;99.90;;;;;;5094816;28;19915;-71
2022/09/24 05:37:07;;;;;;;;;;;12.10;99.90;;;;;;5094819;28;19908;-71
2022/09/24 05:39:32;;;;;;;;;;;12.10;99.90;;;;;;5094736;28;19908;-71
2022/09/24 05:41:58;;;;;;;;;;;12.10;99.90;;;;;;5076566;28;19908;-71
2022/09/24 05:44:23;;;;;;;;;;;12.10;99.90;;;;;;5094711;28;19915;-71
2022/09/24 05:46:50;;;;;;;;;;;12.20;99.90;;;;;;5076391;28;19908;-71
2022/09/24 05:49:15;;;;;;;;;;;12.20;99.90;;;;;;5094674;28;19908;-71
2022/09/24 05:51:41;;;;;;;;;;;12.20;99.90;;;;;;5076319;28;20286;-71
2022/09/24 05:54:06;;;;;;;;;;;12.20;99.90;;;;;;5094512;28;19958;-71
2022/09/24 05:56:32;;;;;;;;;;;12.20;99.90;;;;;;5076404;28;19965;-71
2022/09/24 05:58:59;;;;;;;;;;;12.30;99.90;;;;;;5094406;28;19908;-71
2022/09/24 06:01:28;;;;;;;;;;;12.30;99.90;;;;;;5094375;28;19971;-71
2022/09/24 06:03:55;;;;;;;;;;;12.30;99.90;;;;;;5059936;28;19931;-71
2022/09/24 06:06:21;;;;;;;;;;;12.30;99.90;;;;;;5094286;28;19912;-71
2022/09/24 06:08:47;;;;;;;;;;;12.40;99.90;;;;;;5094107;28;19919;-72
2022/09/24 06:11:13;;;;;;;;;;;12.40;99.90;;;;;;5094192;28;19999;-71
2022/09/24 06:13:38;;;;;;;;;;;12.40;99.90;;;;;;5094151;28;19908;-71
2022/09/24 06:16:06;;;;;;;;;;;12.40;99.90;;;;;;5094135;28;19908;-71
2022/09/24 06:18:33;;;;;;;;;;;12.50;99.90;;;;;;5094073;28;19918;-71
2022/09/24 06:21:00;;;;;;;;;;;12.50;99.90;;;;;;5094079;28;19908;-71
2022/09/24 06:23:25;;;;;;;;;;;12.50;99.90;;;;;;5094033;28;19908;-71
2022/09/24 06:25:50;;;;;;;;;;;12.60;99.90;;;;;;5093922;28;19962;-71
2022/09/24 06:28:16;;;;;;;;;;;12.60;99.90;;;;;;5075770;28;19912;-71
2022/09/24 06:30:41;;;;;;;;;;;12.60;99.90;;;;;;5093950;28;19908;-71
2022/09/24 06:33:08;;;;;;;;;;;12.70;99.90;;;;;;5075905;28;19943;-71
2022/09/24 06:35:34;;;;;;;;;;;12.80;99.90;;;;;;5093818;28;19995;-71
2022/09/24 06:38:00;;;;;;;;;;;12.80;99.90;;;;;;5093854;28;19915;-71
2022/09/24 06:40:26;;;;;;;;;;;12.90;99.90;;;;;;5075860;28;19908;-71
2022/09/24 06:42:52;;;;;;;;;;;12.80;99.90;;;;;;5093580;28;20025;-71
2022/09/24 06:45:19;;;;;;;;;;;12.90;99.90;;;;;;5093868;28;19908;-72
2022/09/24 06:47:50;;;;;;;;;;;13.10;99.90;;;;;;5093447;28;20018;-71
2022/09/24 06:50:16;;;;;;;;;;;13.00;99.90;;;;;;5093722;28;20029;-71
2022/09/24 06:52:41;;;;;;;;;;;13.00;99.90;;;;;;5093616;28;19952;-71
2022/09/24 06:55:07;;;;;;;;;;;13.10;99.90;;;;;;5093669;28;19916;-71
2022/09/24 06:57:33;;;;;;;;;;;13.10;99.90;;;;;;5075633;28;19908;-71
2022/09/24 06:59:58;;;;;;;;;;;13.20;99.90;;;;;;5093618;28;19909;-71
2022/09/24 07:02:23;;;;;;;;;;;13.20;99.90;;;;;;5075443;28;20035;-71
2022/09/24 07:04:49;;;;;;;;;;;13.30;99.90;;;;;;5093562;28;19912;-71
2022/09/24 07:07:31;;;;;;;;;;;13.30;99.90;;;;;;5093516;28;20007;-71
2022/09/24 07:09:57;;;;;;;;;;;13.40;99.90;;;;;;5075472;28;19909;-71
2022/09/24 07:12:23;;;;;;;;;;;13.50;99.90;;;;;;5075549;28;19908;-71
2022/09/24 07:14:49;;;;;;;;;;;13.60;99.90;;;;;;5075400;28;19955;-72
2022/09/24 07:17:14;;;;;;;;;;;13.70;99.90;;;;;;5075740;28;19908;-72
2022/09/24 07:19:40;;;;;;;;;;;13.70;99.90;;;;;;5093433;28;19908;-71
2022/09/24 07:22:06;;;;;;;;;;;13.80;99.90;;;;;;5093410;28;19908;-71
2022/09/24 07:24:31;;;;;;;;;;;13.70;99.90;;;;;;5093308;28;19915;-71
2022/09/24 07:26:57;;;;;;;;;;;13.70;99.90;;;;;;5093288;28;19908;-71
2022/09/24 07:29:22;;;;;;;;;;;13.80;99.90;;;;;;5075254;28;20023;-71
2022/09/24 07:31:48;;;;;;;;;;;13.80;99.90;;;;;;5075306;28;19908;-71
2022/09/24 07:34:13;;;;;;;;;;;13.90;99.90;;;;;;5093268;28;19909;-72
2022/09/24 07:36:39;;;;;;;;;;;14.00;99.90;;;;;;5093270;28;20444;-71
2022/09/24 07:39:05;;;;;;;;;;;14.20;99.90;;;;;;5075118;28;20419;-72
2022/09/24 07:41:30;;;;;;;;;;;14.30;99.90;;;;;;5075162;28;19912;-71
2022/09/24 07:43:56;;;;;;;;;;;14.40;99.90;;;;;;5093294;28;19908;-71
2022/09/24 07:46:21;;;;;;;;;;;14.70;99.90;;;;;;5075182;28;20294;-71
2022/09/24 07:48:48;;;;;;;;;;;14.90;99.90;;;;;;5074967;28;20339;-72
2022/09/24 07:51:13;;;;;;;;;;;15.10;99.90;;;;;;5075043;28;20016;-71
2022/09/24 07:53:38;;;;;;;;;;;15.30;99.90;;;;;;5093120;28;19948;-71
2022/09/24 07:56:04;;;;;;;;;;;15.40;99.90;;;;;;5077735;28;19961;-72
2022/09/24 07:58:30;;;;;;;;;;;15.50;99.90;;;;;;5061928;28;19908;-72
2022/09/24 08:00:57;;;;;;;;;;;15.50;99.90;;;;;;5096722;28;19915;-72
2022/09/24 08:03:23;;;;;;;;;;;15.60;99.90;;;;;;5096674;28;19908;-72
2022/09/24 08:05:49;;;;;;;;;;;;;;;;;;5096667;28;19908;-72
2022/09/24 08:08:14;;;;;;;;;;;15.80;99.90;;;;;;5096497;28;19913;-72
2022/09/24 08:10:41;;;;;;;;;;;15.90;99.90;;;;;;5078507;28;20455;-72
2022/09/24 08:13:07;;;;;;;;;;;16.00;99.90;;;;;;5061811;28;20045;-71
2022/09/24 08:15:33;;;;;;;;;;;15.80;99.90;;;;;;5096388;28;19908;-72
2022/09/24 08:18:00;;;;;;;;;;;15.80;99.90;;;;;;5096805;28;19914;-72
2022/09/24 08:20:25;;;;;;;;;;;15.80;99.90;;;;;;5096363;28;20003;-72
2022/09/24 08:22:51;;;;;;;;;;;16.10;99.90;;;;;;5096321;28;20416;-72
2022/09/24 08:25:16;;;;;;;;;;;16.30;99.90;;;;;;5078227;28;19908;-72
2022/09/24 08:27:42;;;;;;;;;;;16.50;99.90;;;;;;5096083;28;19919;-72
2022/09/24 08:30:08;;;;;;;;;;;16.50;99.90;;;;;;5061327;28;19955;-72
2022/09/24 08:32:33;;;;;;;;;;;16.50;99.90;;;;;;5096096;28;19919;-72
2022/09/24 08:34:59;;;;;;;;;;;16.90;99.90;;;;;;5096131;28;20294;-72
2022/09/24 08:37:26;;;;;;;;;;;16.60;99.90;;;;;;5077907;28;20389;-71
2022/09/24 08:39:51;;;;;;;;;;;16.50;99.90;;;;;;5095941;28;19919;-72
2022/09/24 08:42:36;;;;;;;;;;;16.50;99.90;;;;;;5077903;28;19908;-71
2022/09/24 08:47:55;;;;;;;;;;;17.00;99.90;;;;;;5095379;28;20033;-71
2022/09/24 08:50:23;;;;;;;;;;;16.90;99.90;;;;;;5095702;28;19909;-71
2022/09/24 08:53:00;;;;;;;;;;;16.90;99.90;;;;;;5095618;28;19964;-72
2022/09/24 08:55:35;;;;;;;;;;;17.10;99.90;;;;;;5095601;28;19951;-72
2022/09/24 08:58:10;;;;;;;;;;;17.20;99.90;;;;;;5095620;28;20309;-71
2022/09/24 09:00:42;;;;;;;;;;;17.10;99.90;;;;;;5095572;28;19908;-72
2022/09/24 09:03:16;;;;;;;;;;;17.10;99.90;;;;;;5077409;28;20041;-71
2022/09/24 09:05:51;;;;;;;;;;;16.80;99.90;;;;;;5095406;28;19934;-71
2022/09/24 09:08:21;;;;;;;;;;;16.80;99.90;;;;;;5077211;28;19912;-72
2022/09/24 09:10:48;;;;;;;;;;;16.90;99.90;;;;;;5095388;28;19947;-71
2022/09/24 09:13:18;;;;;;;;;;;16.80;99.90;;;;;;5095314;28;20421;-72
2022/09/24 09:15:46;;;;;;;;;;;16.70;99.90;;;;;;5095221;28;19908;-72
2022/09/24 09:18:16;;;;;;;;;;;16.70;99.90;;;;;;5077035;28;19999;-72
2022/09/24 09:20:43;;;;;;;;;;;16.70;99.90;;;;;;5095125;28;19908;-71
2022/09/24 09:23:28;;;;;;;;;;;16.80;99.90;;;;;;5095093;28;19908;-71
2022/09/24 09:25:55;;;;;;;;;;;16.90;99.90;;;;;;5076765;28;19908;-71
2022/09/24 09:28:20;;;;;;;;;;;17.10;99.90;;;;;;5094929;28;20082;-72
2022/09/24 09:31:07;;;;;;;;;;;17.30;99.90;;;;;;5095253;28;19915;-72
2022/09/24 09:33:55;;;;;;;;;;;17.40;99.90;;;;;;5076538;28;20019;-72
2022/09/24 09:36:30;;;;;;;;;;;17.70;99.90;;;;;;5094790;28;19912;-72
2022/09/24 09:41:55;;;;;;;;;;;18.10;99.90;;;;;;5071079;28;19919;-64
2022/09/24 09:44:23;;;;;;;;;;;18.10;99.90;;;;;;5070884;28;19913;-63
2022/09/24 09:46:52;;;;;;;;;;;18.20;99.90;;;;;;5071077;28;19915;-63
2022/09/24 09:49:18;;;;;;;;;;;18.10;99.90;;;;;;5070791;28;19909;-64
2022/09/24 09:51:45;;;;;;;;;;;18.10;99.90;;;;;;5070997;28;19978;-64
2022/09/24 09:54:10;;;;;;;;;;;18.00;99.90;;;;;;5070681;28;19909;-63
2022/09/24 09:56:40;;;;;;;;;;;18.00;99.90;;;;;;5070624;28;19912;-63
2022/09/24 09:59:13;;;;;;;;;;;17.90;99.90;;;;;;5069142;28;19909;-64
2022/09/24 10:01:40;;;;;;;;;;;18.20;99.90;;;;;;5070517;28;19908;-64
2022/09/24 10:04:20;;;;;;;;;;;18.40;99.90;;;;;;5070523;28;20321;-63
2022/09/24 10:06:45;;;;;;;;;;;18.50;99.90;;;;;;5070370;28;19958;-64
2022/09/24 10:09:14;;;;;;;;;;;18.10;99.90;;;;;;5070689;28;19909;-64
2022/09/24 10:11:40;;;;;;;;;;;18.20;99.90;;;;;;5070687;28;19916;-63
2022/09/24 10:14:08;;;;;;;;;;;17.90;99.90;;;;;;5070610;28;19955;-63
2022/09/24 10:16:36;;;;;;;;;;;17.90;99.90;;;;;;5070238;28;19912;-64
2022/09/24 10:19:02;;;;;;;;;;;18.00;99.90;;;;;;5070221;28;20399;-63
2022/09/24 10:21:33;;;;;;;;;;;18.10;99.90;;;;;;5070051;28;19913;-64
2022/09/24 10:24:00;;;;;;;;;;;17.80;99.90;;;;;;5070356;28;19915;-63
2022/09/24 10:26:34;;;;;;;;;;;18.00;99.90;;;;;;5070044;28;19909;-63
2022/09/24 10:31:46;;;;;;;;;;;17.70;99.90;;;;;;5069813;28;19913;-63
2022/09/24 10:34:21;;;;;;;;;;;17.70;99.90;;;;;;5068472;28;19908;-63
2022/09/24 10:37:03;;;;;;;;;;;17.50;99.90;;;;;;5069791;28;19913;-64
2022/09/24 10:39:29;;;;;;;;;;;17.50;99.90;;;;;;5072809;28;19925;-63
2022/09/24 10:41:56;;;;;;;;;;;17.60;99.90;;;;;;5090316;28;19908;-63
2022/09/24 10:44:22;;;;;;;;;;;17.50;99.90;;;;;;5090278;28;19991;-64
2022/09/24 10:47:03;;;;;;;;;;;17.50;99.90;;;;;;5090236;28;19915;-63
2022/09/24 10:49:48;;;;;;;;;;;17.50;99.90;;;;;;5090117;28;20354;-63
2022/09/24 10:52:34;;;;;;;;;;;17.20;99.90;;;;;;5080189;28;20393;-63
2022/09/24 10:55:20;;;;;;;;;;;17.10;99.90;;;;;;5076042;28;20278;-63
2022/09/24 10:58:02;;;;;;;;;;;17.00;99.90;;;;;;5076190;28;20283;-63
2022/09/24 11:00:37;;;;;;;;;;;17.30;99.90;;;;;;5076376;28;19912;-64
2022/09/24 11:06:01;;;;;;;;;;;17.50;99.90;;;;;;5091251;27;19913;-63
2022/09/24 11:11:27;;;;;;;;;;;17.50;99.90;;;;;;5070983;28;20403;-63
2022/09/24 11:14:13;;;;;;;;;;;17.60;99.90;;;;;;5070702;28;19913;-62
2022/09/24 11:16:58;;;;;;;;;;;17.80;99.90;;;;;;5070831;28;19909;-62
2022/09/24 11:19:44;;;;;;;;;;;17.80;99.90;;;;;;5070783;28;19908;-63
2022/09/24 11:22:13;;;;;;;;;;;17.90;99.90;;;;;;5070761;28;19913;-62
2022/09/24 11:24:46;;;;;;;;;;;17.70;99.90;;;;;;5070953;28;19908;-64
2022/09/24 11:27:31;;;;;;;;;;;17.80;99.90;;;;;;5070680;28;20407;-63
2022/09/24 11:30:12;;;;;;;;;;;17.80;99.90;;;;;;5070375;28;20375;-64
2022/09/24 11:32:43;;;;;;;;;;;17.70;99.90;;;;;;5070613;28;19912;-63
2022/09/24 11:35:29;;;;;;;;;;;17.50;99.90;;;;;;5070846;28;20283;-63
2022/09/24 11:37:59;;;;;;;;;;;17.40;99.90;;;;;;5070414;28;19952;-63
2022/09/24 11:40:31;;;;;;;;;;;17.30;99.90;;;;;;5070688;28;19909;-63
2022/09/24 11:43:05;;;;;;;;;;;17.00;99.90;;;;;;5070674;28;20367;-63
2022/09/24 11:45:52;;;;;;;;;;;16.70;99.90;;;;;;5070593;28;19916;-63
2022/09/24 11:48:38;;;;;;;;;;;16.50;99.90;;;;;;5070229;28;20397;-63
2022/09/24 11:51:12;;;;;;;;;;;16.50;99.90;;;;;;5070177;28;20383;-63
2022/09/24 11:53:43;;;;;;;;;;;16.50;99.90;;;;;;5070431;28;20393;-63
2022/09/24 11:56:14;;;;;;;;;;;16.70;99.90;;;;;;5070313;28;19932;-63
2022/09/24 11:58:47;;;;;;;;;;;16.80;99.90;;;;;;5070292;28;20279;-63
2022/09/24 12:01:19;;;;;;;;;;;17.10;99.90;;;;;;5070109;28;20365;-64
2022/09/24 12:03:51;;;;;;;;;;;17.40;99.90;;;;;;5069955;28;19948;-63
2022/09/24 12:06:20;;;;;;;;;;;17.60;99.90;;;;;;5070154;28;19915;-62
2022/09/24 12:08:54;;;;;;;;;;;17.80;99.90;;;;;;5070520;28;19915;-63
2022/09/24 12:11:27;;;;;;;;;;;17.70;99.90;;;;;;5090322;28;19995;-62
2022/09/24 12:14:02;;;;;;;;;;;17.70;99.90;;;;;;5090281;28;19908;-63
2022/09/24 12:16:31;;;;;;;;;;;17.90;99.90;;;;;;5090107;28;20442;-63
2022/09/24 12:19:03;;;;;;;;;;;18.00;99.90;;;;;;5090165;28;19915;-63
2022/09/24 12:21:31;;;;;;;;;;;18.10;99.90;;;;;;5082017;28;19908;-62
2022/09/24 12:24:00;;;;;;;;;;;18.00;99.90;;;;;;5076596;28;19932;-63
2022/09/24 12:26:30;;;;;;;;;;;18.00;99.90;;;;;;5076289;28;19916;-63
2022/09/24 12:35:04;;;;;;;;;;;17.70;99.90;;;;;;5075950;28;19926;-62
2022/09/24 12:37:32;;;;;;;;;;;17.20;99.90;;;;;;5076346;28;20419;-62
2022/09/24 12:40:02;;;;;;;;;;;17.20;99.90;;;;;;5075996;28;19913;-62
2022/09/24 12:42:31;;;;;;;;;;;17.30;99.90;;;;;;5058050;28;19908;-64
2022/09/24 12:44:59;;;;;;;;;;;17.00;99.90;;;;;;5076037;28;19908;-64
2022/09/24 12:47:26;;;;;;;;;;;17.10;99.90;;;;;;5076180;28;19919;-64
2022/09/24 12:49:54;;;;;;;;;;;17.00;99.90;;;;;;5076034;28;19985;-61
2022/09/24 12:52:23;;;;;;;;;;;17.10;99.90;;;;;;5076051;28;19955;-62
2022/09/24 12:54:58;;;;;;;;;;;17.00;99.90;;;;;;5075765;28;19908;-64
2022/09/24 12:57:28;;;;;;;;;;;17.00;99.90;;;;;;5075698;28;19909;-64
2022/09/24 12:59:56;;;;;;;;;;;17.00;99.90;;;;;;5075744;28;19908;-62
2022/09/24 13:02:22;;;;;;;;;;;17.00;99.90;;;;;;5075885;28;19913;-63
2022/09/24 13:04:49;;;;;;;;;;;16.90;99.90;;;;;;5075511;28;19912;-62
2022/09/24 13:07:26;;;;;;;;;;;17.00;99.90;;;;;;5075787;28;19915;-62
2022/09/24 13:09:51;;;;;;;;;;;16.90;99.90;;;;;;5075314;28;20304;-63
2022/09/24 13:12:18;;;;;;;;;;;16.90;99.90;;;;;;5075642;28;19914;-63
2022/09/24 13:14:48;;;;;;;;;;;16.80;99.90;;;;;;5075333;28;19948;-63
2022/09/24 13:17:14;;;;;;;;;;;16.60;99.90;;;;;;5057776;28;19908;-63
2022/09/24 13:19:41;;;;;;;;;;;16.60;99.90;;;;;;5075538;28;20001;-63
2022/09/24 13:22:25;;;;;;;;;;;16.50;99.90;;;;;;5075501;28;20337;-63
2022/09/24 13:24:52;;;;;;;;;;;16.50;99.90;;;;;;5057384;28;20374;-63
2022/09/24 13:27:37;;;;;;;;;;;16.50;99.90;;;;;;5075160;28;19915;-63
2022/09/24 13:30:09;;;;;;;;;;;16.50;99.90;;;;;;5074936;28;19920;-63
2022/09/24 13:32:39;;;;;;;;;;;16.40;99.90;;;;;;5073989;28;19909;-63
2022/09/24 13:35:08;;;;;;;;;;;16.50;99.90;;;;;;5074997;28;20375;-63
2022/09/24 13:37:37;;;;;;;;;;;16.60;99.90;;;;;;5074959;28;19908;-63
2022/09/24 13:40:04;;;;;;;;;;;16.60;99.90;;;;;;5074853;28;19915;-63
2022/09/24 13:42:37;;;;;;;;;;;16.60;99.90;;;;;;5074845;28;19913;-63
2022/09/24 13:45:05;;;;;;;;;;;16.60;99.90;;;;;;5074739;28;20002;-63
2022/09/24 13:47:35;;;;;;;;;;;16.70;99.90;;;;;;5074961;28;19909;-63
2022/09/24 13:50:06;;;;;;;;;;;16.80;99.90;;;;;;5074827;28;19965;-63
2022/09/24 13:52:34;;;;;;;;;;;16.90;99.90;;;;;;5074629;28;19909;-63
2022/09/24 13:55:14;;;;;;;;;;;16.80;99.90;;;;;;5074831;28;19927;-63
2022/09/24 13:57:46;;;;;;;;;;;16.70;99.90;;;;;;5074583;28;19916;-63
2022/09/24 14:00:15;;;;;;;;;;;16.60;99.90;;;;;;5074427;28;19908;-63
2022/09/24 14:02:43;;;;;;;;;;;16.60;99.90;;;;;;5056588;28;20394;-63
2022/09/24 14:05:15;;;;;;;;;;;16.50;99.90;;;;;;5074355;28;20386;-63
2022/09/24 14:07:40;;;;;;;;;;;16.40;99.90;;;;;;5074564;28;19912;-63
2022/09/24 14:10:11;;;;;;;;;;;16.40;99.90;;;;;;5056074;28;19943;-63
2022/09/24 14:12:37;;;;;;;;;;;16.40;99.90;;;;;;5074556;28;20255;-63
2022/09/24 14:15:08;;;;;;;;;;;16.40;99.90;;;;;;5074158;28;19958;-63
2022/09/24 14:17:34;;;;;;;;;;;16.40;99.90;;;;;;5074166;28;19908;-63
2022/09/24 14:19:59;;;;;;;;;;;16.30;99.90;;;;;;5074183;28;20391;-63
2022/09/24 14:22:29;;;;;;;;;;;16.30;99.90;;;;;;5056179;28;20317;-63
2022/09/24 14:24:59;;;;;;;;;;;16.30;99.90;;;;;;5074062;28;19960;-63
2022/09/24 14:27:25;;;;;;;;;;;16.30;99.90;;;;;;5073997;28;19908;-63
2022/09/24 14:29:56;;;;;;;;;;;16.30;99.90;;;;;;5074168;28;19939;-63
2022/09/24 14:32:25;;;;;;;;;;;16.30;99.90;;;;;;5074210;28;19912;-63
2022/09/24 14:34:52;;;;;;;;;;;16.30;99.90;;;;;;5073884;28;19916;-63
2022/09/24 14:37:20;;;;;;;;;;;16.30;99.90;;;;;;5073818;28;19909;-63
2022/09/24 14:39:47;;;;;;;;;;;16.30;99.90;;;;;;5073819;28;19915;-64
2022/09/24 14:42:20;;;;;;;;;;;16.30;99.90;;;;;;5074015;28;19915;-63
2022/09/24 14:44:45;;;;;;;;;;;16.30;99.90;;;;;;5073526;28;19944;-63
2022/09/24 14:47:27;;;;;;;;;;;16.30;99.90;;;;;;5073736;28;19908;-63
2022/09/24 14:49:53;;;;;;;;;;;16.40;99.90;;;;;;5073878;28;20007;-63
2022/09/24 14:52:27;;;;;;;;;;;16.40;99.90;;;;;;5073697;28;20363;-63